sensor_id;sensor_type;location;lat;lon;timestamp;pressure;altitude;pressure_sealevel;temperature;humidity
12775;BME280;6451;42.630;23.382;2022-07-05T00:01:18;94560.97;;;20.77;96.42
12775;BME280;6451;42.630;23.382;2022-07-05T00:03:45;94549.56;;;20.75;96.02
12775;BME280;6451;42.630;23.382;2022-07-05T00:06:12;94531.88;;;20.69;96.11
12775;BME280;6451;42.630;23.382;2022-07-05T00:08:41;94545.25;;;20.74;95.59
12775;BME280;6451;42.630;23.382;2022-07-05T00:11:08;94546.84;;;20.71;93.96
12775;BME280;6451;42.630;23.382;2022-07-05T00:13:36;94516.16;;;20.62;91.37
12775;BME280;6451;42.630;23.382;2022-07-05T00:16:03;94536.59;;;20.68;92.74
12775;BME280;6451;42.630;23.382;2022-07-05T00:18:30;94527.22;;;20.59;95.34
12775;BME280;6451;42.630;23.382;2022-07-05T00:20:56;94531.97;;;20.54;96.56
12775;BME280;6451;42.630;23.382;2022-07-05T00:23:23;94527.72;;;20.39;98.64
12775;BME280;6451;42.630;23.382;2022-07-05T00:25:51;94532.91;;;20.34;100.00
12775;BME280;6451;42.630;23.382;2022-07-05T00:28:18;94508.25;;;20.09;100.00
12775;BME280;6451;42.630;23.382;2022-07-05T00:30:45;94517.69;;;20.08;100.00
12775;BME280;6451;42.630;23.382;2022-07-05T00:33:12;94488.69;;;19.85;100.00
12775;BME280;6451;42.630;23.382;2022-07-05T00:35:39;94514.19;;;20.04;100.00
12775;BME280;6451;42.630;23.382;2022-07-05T00:38:06;94492.22;;;19.89;100.00
12775;BME280;6451;42.630;23.382;2022-07-05T00:40:33;94522.75;;;20.16;100.00
12775;BME280;6451;42.630;23.382;2022-07-05T00:43:01;94525.53;;;20.13;99.92
12775;BME280;6451;42.630;23.382;2022-07-05T00:45:28;94521.94;;;20.23;97.86
12775;BME280;6451;42.630;23.382;2022-07-05T00:47:55;94512.88;;;20.22;96.98
12775;BME280;6451;42.630;23.382;2022-07-05T00:50:23;94521.47;;;20.32;93.47
12775;BME280;6451;42.630;23.382;2022-07-05T00:52:53;94534.84;;;20.40;93.67
12775;BME280;6451;42.630;23.382;2022-07-05T00:55:20;94529.69;;;20.39;95.18
12775;BME280;6451;42.630;23.382;2022-07-05T00:57:48;94520.69;;;20.31;95.56
12775;BME280;6451;42.630;23.382;2022-07-05T01:00:17;94528.97;;;20.31;96.67
12775;BME280;6451;42.630;23.382;2022-07-05T01:02:45;94503.50;;;20.13;97.39
12775;BME280;6451;42.630;23.382;2022-07-05T01:05:12;94517.59;;;20.25;97.32
12775;BME280;6451;42.630;23.382;2022-07-05T01:07:38;94496.41;;;20.15;96.44
12775;BME280;6451;42.630;23.382;2022-07-05T01:10:06;94519.50;;;20.36;94.04
12775;BME280;6451;42.630;23.382;2022-07-05T01:12:33;94512.88;;;20.26;94.62
12775;BME280;6451;42.630;23.382;2022-07-05T01:15:00;94521.88;;;20.34;95.00
12775;BME280;6451;42.630;23.382;2022-07-05T01:17:30;94521.50;;;20.28;99.86
12775;BME280;6451;42.630;23.382;2022-07-05T01:19:57;94522.00;;;20.12;100.00
12775;BME280;6451;42.630;23.382;2022-07-05T01:22:26;94496.25;;;19.74;100.00
12775;BME280;6451;42.630;23.382;2022-07-05T01:24:54;94519.84;;;19.75;100.00
12775;BME280;6451;42.630;23.382;2022-07-05T01:27:21;94546.16;;;19.83;100.00
12775;BME280;6451;42.630;23.382;2022-07-05T01:29:49;94552.50;;;19.73;100.00
12775;BME280;6451;42.630;23.382;2022-07-05T01:32:17;94539.97;;;19.58;100.00
12775;BME280;6451;42.630;23.382;2022-07-05T01:34:45;94546.63;;;19.60;100.00
12775;BME280;6451;42.630;23.382;2022-07-05T01:37:13;94552.53;;;19.62;100.00
12775;BME280;6451;42.630;23.382;2022-07-05T01:39:40;94548.59;;;19.53;100.00
12775;BME280;6451;42.630;23.382;2022-07-05T01:42:09;94547.03;;;19.52;100.00
12775;BME280;6451;42.630;23.382;2022-07-05T01:44:35;94542.34;;;19.41;100.00
12775;BME280;6451;42.630;23.382;2022-07-05T01:47:05;94535.28;;;19.40;100.00
12775;BME280;6451;42.630;23.382;2022-07-05T01:49:41;94534.09;;;19.49;100.00
12775;BME280;6451;42.630;23.382;2022-07-05T01:52:10;94520.75;;;19.29;100.00
12775;BME280;6451;42.630;23.382;2022-07-05T01:54:38;94532.13;;;19.42;100.00
12775;BME280;6451;42.630;23.382;2022-07-05T01:57:06;94540.00;;;19.40;100.00
12775;BME280;6451;42.630;23.382;2022-07-05T01:59:35;94538.41;;;19.39;100.00
12775;BME280;6451;42.630;23.382;2022-07-05T02:02:03;94535.66;;;19.39;100.00
12775;BME280;6451;42.630;23.382;2022-07-05T02:04:32;94520.78;;;19.22;100.00
12775;BME280;6451;42.630;23.382;2022-07-05T02:06:59;94525.47;;;19.32;100.00
12775;BME280;6451;42.630;23.382;2022-07-05T02:09:31;94538.03;;;19.40;100.00
12775;BME280;6451;42.630;23.382;2022-07-05T02:11:57;94516.47;;;19.17;100.00
12775;BME280;6451;42.630;23.382;2022-07-05T02:14:25;94529.41;;;19.35;100.00
12775;BME280;6451;42.630;23.382;2022-07-05T02:16:54;94523.13;;;19.24;100.00
12775;BME280;6451;42.630;23.382;2022-07-05T02:19:22;94514.97;;;18.81;100.00
12775;BME280;6451;42.630;23.382;2022-07-05T02:21:49;94531.84;;;18.72;100.00
12775;BME280;6451;42.630;23.382;2022-07-05T02:24:16;94535.78;;;18.75;100.00
12775;BME280;6451;42.630;23.382;2022-07-05T02:26:43;94522.41;;;18.48;100.00
12775;BME280;6451;42.630;23.382;2022-07-05T02:29:10;94528.69;;;18.42;100.00
12775;BME280;6451;42.630;23.382;2022-07-05T02:31:37;94526.31;;;18.54;100.00
12775;BME280;6451;42.630;23.382;2022-07-05T02:34:05;94546.00;;;18.74;100.00
12775;BME280;6451;42.630;23.382;2022-07-05T02:36:32;94544.78;;;18.97;100.00
12775;BME280;6451;42.630;23.382;2022-07-05T02:38:59;94520.81;;;19.01;100.00
12775;BME280;6451;42.630;23.382;2022-07-05T02:41:27;94543.97;;;19.14;100.00
12775;BME280;6451;42.630;23.382;2022-07-05T02:43:53;94514.53;;;18.97;100.00
12775;BME280;6451;42.630;23.382;2022-07-05T02:46:21;94550.66;;;19.27;100.00
12775;BME280;6451;42.630;23.382;2022-07-05T02:48:50;94548.69;;;19.28;100.00
12775;BME280;6451;42.630;23.382;2022-07-05T02:51:19;94554.16;;;19.31;100.00
12775;BME280;6451;42.630;23.382;2022-07-05T02:53:45;94564.00;;;19.29;100.00
12775;BME280;6451;42.630;23.382;2022-07-05T02:56:12;94549.09;;;19.19;100.00
12775;BME280;6451;42.630;23.382;2022-07-05T02:58:39;94553.00;;;19.22;100.00
12775;BME280;6451;42.630;23.382;2022-07-05T03:01:08;94556.13;;;19.34;100.00
12775;BME280;6451;42.630;23.382;2022-07-05T03:03:34;94546.31;;;19.26;100.00
12775;BME280;6451;42.630;23.382;2022-07-05T03:06:01;94530.97;;;19.29;100.00
12775;BME280;6451;42.630;23.382;2022-07-05T03:08:29;94565.16;;;19.35;100.00
12775;BME280;6451;42.630;23.382;2022-07-05T03:10:56;94562.41;;;19.38;100.00
12775;BME280;6451;42.630;23.382;2022-07-05T03:13:23;94556.13;;;19.31;100.00
12775;BME280;6451;42.630;23.382;2022-07-05T03:15:50;94547.50;;;19.32;100.00
12775;BME280;6451;42.630;23.382;2022-07-05T03:18:17;94545.91;;;19.31;100.00
12775;BME280;6451;42.630;23.382;2022-07-05T03:20:45;94523.16;;;19.20;100.00
12775;BME280;6451;42.630;23.382;2022-07-05T03:23:12;94543.53;;;19.44;100.00
12775;BME280;6451;42.630;23.382;2022-07-05T03:25:40;94536.44;;;19.43;100.00
12775;BME280;6451;42.630;23.382;2022-07-05T03:28:07;94561.59;;;19.52;100.00
12775;BME280;6451;42.630;23.382;2022-07-05T03:30:34;94556.13;;;19.34;100.00
12775;BME280;6451;42.630;23.382;2022-07-05T03:33:01;94556.13;;;19.34;100.00
12775;BME280;6451;42.630;23.382;2022-07-05T03:35:28;94538.84;;;19.27;100.00
12775;BME280;6451;42.630;23.382;2022-07-05T03:37:55;94559.63;;;19.49;100.00
12775;BME280;6451;42.630;23.382;2022-07-05T03:40:22;94557.69;;;19.42;100.00
12775;BME280;6451;42.630;23.382;2022-07-05T03:42:51;94554.91;;;19.57;100.00
12775;BME280;6451;42.630;23.382;2022-07-05T03:45:19;94543.50;;;19.58;100.00
12775;BME280;6451;42.630;23.382;2022-07-05T03:47:46;94553.66;;;19.76;100.00
12775;BME280;6451;42.630;23.382;2022-07-05T03:50:12;94542.53;;;20.00;100.00
12775;BME280;6451;42.630;23.382;2022-07-05T03:52:39;94547.63;;;20.06;100.00
12775;BME280;6451;42.630;23.382;2022-07-05T03:55:07;94540.03;;;20.24;100.00
12775;BME280;6451;42.630;23.382;2022-07-05T03:57:34;94531.84;;;20.17;100.00
12775;BME280;6451;42.630;23.382;2022-07-05T04:00:03;94537.72;;;20.19;100.00
12775;BME280;6451;42.630;23.382;2022-07-05T04:02:30;94539.13;;;20.48;100.00
12775;BME280;6451;42.630;23.382;2022-07-05T04:04:57;94535.13;;;20.57;100.00
12775;BME280;6451;42.630;23.382;2022-07-05T04:07:23;94534.81;;;20.47;100.00
12775;BME280;6451;42.630;23.382;2022-07-05T04:09:50;94540.25;;;20.54;100.00
12775;BME280;6451;42.630;23.382;2022-07-05T04:12:17;94532.44;;;20.46;100.00
12775;BME280;6451;42.630;23.382;2022-07-05T04:14:44;94531.13;;;20.65;100.00
12775;BME280;6451;42.630;23.382;2022-07-05T04:17:12;94542.84;;;20.76;100.00
12775;BME280;6451;42.630;23.382;2022-07-05T04:19:39;94537.50;;;20.54;100.00
12775;BME280;6451;42.630;23.382;2022-07-05T04:22:06;94527.97;;;20.66;100.00
12775;BME280;6451;42.630;23.382;2022-07-05T04:24:33;94544.00;;;20.82;100.00
12775;BME280;6451;42.630;23.382;2022-07-05T04:27:21;94534.69;;;21.06;100.00
12775;BME280;6451;42.630;23.382;2022-07-05T04:29:48;94544.97;;;21.06;100.00
12775;BME280;6451;42.630;23.382;2022-07-05T04:32:16;94549.47;;;21.34;100.00
12775;BME280;6451;42.630;23.382;2022-07-05T04:34:43;94540.81;;;21.32;100.00
12775;BME280;6451;42.630;23.382;2022-07-05T04:37:10;94542.97;;;21.10;100.00
12775;BME280;6451;42.630;23.382;2022-07-05T04:39:37;94542.38;;;21.33;100.00
12775;BME280;6451;42.630;23.382;2022-07-05T04:42:04;94531.28;;;21.36;100.00
12775;BME280;6451;42.630;23.382;2022-07-05T04:44:31;94527.00;;;21.32;100.00
12775;BME280;6451;42.630;23.382;2022-07-05T04:46:58;94499.97;;;21.13;100.00
12775;BME280;6451;42.630;23.382;2022-07-05T04:49:26;94553.16;;;21.17;100.00
12775;BME280;6451;42.630;23.382;2022-07-05T04:51:53;94542.84;;;21.21;100.00
12775;BME280;6451;42.630;23.382;2022-07-05T04:54:20;94542.44;;;21.22;100.00
12775;BME280;6451;42.630;23.382;2022-07-05T04:56:47;94540.84;;;21.28;100.00
12775;BME280;6451;42.630;23.382;2022-07-05T04:59:13;94545.44;;;21.42;100.00
12775;BME280;6451;42.630;23.382;2022-07-05T05:01:40;94537.63;;;21.68;100.00
12775;BME280;6451;42.630;23.382;2022-07-05T05:04:07;94543.59;;;21.66;100.00
12775;BME280;6451;42.630;23.382;2022-07-05T05:06:36;94532.13;;;21.68;100.00
12775;BME280;6451;42.630;23.382;2022-07-05T05:09:03;94555.84;;;21.27;100.00
12775;BME280;6451;42.630;23.382;2022-07-05T05:11:30;94528.69;;;21.19;100.00
12775;BME280;6451;42.630;23.382;2022-07-05T05:13:57;94535.50;;;21.48;100.00
12775;BME280;6451;42.630;23.382;2022-07-05T05:16:24;94540.56;;;21.53;100.00
12775;BME280;6451;42.630;23.382;2022-07-05T05:18:51;94544.34;;;21.70;100.00
12775;BME280;6451;42.630;23.382;2022-07-05T05:21:18;94530.63;;;21.93;100.00
12775;BME280;6451;42.630;23.382;2022-07-05T05:23:46;94518.59;;;21.77;100.00
12775;BME280;6451;42.630;23.382;2022-07-05T05:26:14;94536.13;;;22.28;100.00
12775;BME280;6451;42.630;23.382;2022-07-05T05:28:41;94541.09;;;22.40;100.00
12775;BME280;6451;42.630;23.382;2022-07-05T05:31:08;94550.00;;;22.51;100.00
12775;BME280;6451;42.630;23.382;2022-07-05T05:33:35;94540.31;;;22.39;100.00
12775;BME280;6451;42.630;23.382;2022-07-05T05:36:02;94549.22;;;22.51;100.00
12775;BME280;6451;42.630;23.382;2022-07-05T05:38:29;94547.00;;;22.38;100.00
12775;BME280;6451;42.630;23.382;2022-07-05T05:40:58;94534.28;;;22.44;100.00
12775;BME280;6451;42.630;23.382;2022-07-05T05:43:24;94546.16;;;22.68;100.00
12775;BME280;6451;42.630;23.382;2022-07-05T05:45:51;94543.31;;;22.48;100.00
12775;BME280;6451;42.630;23.382;2022-07-05T05:48:18;94548.47;;;22.73;100.00
12775;BME280;6451;42.630;23.382;2022-07-05T05:50:46;94550.69;;;22.86;100.00
12775;BME280;6451;42.630;23.382;2022-07-05T05:53:13;94542.75;;;22.84;100.00
12775;BME280;6451;42.630;23.382;2022-07-05T05:55:40;94554.59;;;22.85;100.00
12775;BME280;6451;42.630;23.382;2022-07-05T05:58:13;94549.91;;;23.09;100.00
12775;BME280;6451;42.630;23.382;2022-07-05T06:00:40;94550.72;;;23.29;100.00
12775;BME280;6451;42.630;23.382;2022-07-05T06:03:07;94553.72;;;23.38;100.00
12775;BME280;6451;42.630;23.382;2022-07-05T06:05:34;94551.69;;;23.42;100.00
12775;BME280;6451;42.630;23.382;2022-07-05T06:08:01;94551.00;;;23.58;100.00
12775;BME280;6451;42.630;23.382;2022-07-05T06:10:30;94560.84;;;23.39;100.00
12775;BME280;6451;42.630;23.382;2022-07-05T06:12:59;94542.06;;;23.27;100.00
12775;BME280;6451;42.630;23.382;2022-07-05T06:15:28;94554.31;;;23.49;100.00
12775;BME280;6451;42.630;23.382;2022-07-05T06:17:54;94556.66;;;23.51;100.00
12775;BME280;6451;42.630;23.382;2022-07-05T06:20:24;94560.97;;;23.75;100.00
12775;BME280;6451;42.630;23.382;2022-07-05T06:22:53;94548.59;;;23.60;100.00
12775;BME280;6451;42.630;23.382;2022-07-05T06:25:20;94564.03;;;23.81;100.00
12775;BME280;6451;42.630;23.382;2022-07-05T06:27:49;94564.34;;;23.87;98.21
12775;BME280;6451;42.630;23.382;2022-07-05T06:30:18;94559.78;;;23.76;100.00
12775;BME280;6451;42.630;23.382;2022-07-05T06:32:48;94546.00;;;23.73;99.33
12775;BME280;6451;42.630;23.382;2022-07-05T06:35:15;94557.28;;;23.82;99.25
12775;BME280;6451;42.630;23.382;2022-07-05T06:37:43;94564.13;;;23.77;99.87
12775;BME280;6451;42.630;23.382;2022-07-05T06:40:12;94547.78;;;24.03;96.42
12775;BME280;6451;42.630;23.382;2022-07-05T06:42:40;94570.16;;;24.12;96.46
12775;BME280;6451;42.630;23.382;2022-07-05T06:45:07;94566.16;;;24.13;93.21
12775;BME280;6451;42.630;23.382;2022-07-05T06:47:35;94562.34;;;23.87;95.30
12775;BME280;6451;42.630;23.382;2022-07-05T06:50:04;94551.59;;;24.09;92.13
12775;BME280;6451;42.630;23.382;2022-07-05T06:52:32;94558.81;;;24.23;92.83
12775;BME280;6451;42.630;23.382;2022-07-05T06:54:59;94559.84;;;24.12;94.99
12775;BME280;6451;42.630;23.382;2022-07-05T06:57:26;94551.31;;;24.23;88.84
12775;BME280;6451;42.630;23.382;2022-07-05T06:59:53;94545.31;;;24.45;87.01
12775;BME280;6451;42.630;23.382;2022-07-05T07:02:20;94552.16;;;24.20;93.04
12775;BME280;6451;42.630;23.382;2022-07-05T07:04:48;94552.25;;;24.53;89.85
12775;BME280;6451;42.630;23.382;2022-07-05T07:07:16;94545.31;;;24.61;88.27
12775;BME280;6451;42.630;23.382;2022-07-05T07:09:57;94535.09;;;24.58;86.98
12775;BME280;6451;42.630;23.382;2022-07-05T07:12:24;94531.19;;;24.39;89.25
12775;BME280;6451;42.630;23.382;2022-07-05T07:14:51;94539.22;;;24.86;88.76
12775;BME280;6451;42.630;23.382;2022-07-05T07:17:18;94536.88;;;25.01;91.50
12775;BME280;6451;42.630;23.382;2022-07-05T07:19:45;94543.47;;;25.23;94.89
12775;BME280;6451;42.630;23.382;2022-07-05T07:22:12;94548.94;;;25.27;95.33
12775;BME280;6451;42.630;23.382;2022-07-05T07:24:40;94551.28;;;25.28;90.62
12775;BME280;6451;42.630;23.382;2022-07-05T07:27:07;94529.19;;;25.37;88.76
12775;BME280;6451;42.630;23.382;2022-07-05T07:29:36;94533.75;;;25.31;86.84
12775;BME280;6451;42.630;23.382;2022-07-05T07:32:05;94538.50;;;25.47;85.43
12775;BME280;6451;42.630;23.382;2022-07-05T07:34:33;94549.97;;;25.33;87.73
12775;BME280;6451;42.630;23.382;2022-07-05T07:37:00;94553.38;;;25.53;87.84
12775;BME280;6451;42.630;23.382;2022-07-05T07:39:27;94552.66;;;25.36;88.71
12775;BME280;6451;42.630;23.382;2022-07-05T07:41:57;94550.16;;;25.71;85.55
12775;BME280;6451;42.630;23.382;2022-07-05T07:44:24;94540.63;;;25.72;86.51
12775;BME280;6451;42.630;23.382;2022-07-05T07:46:51;94540.25;;;25.99;86.04
12775;BME280;6451;42.630;23.382;2022-07-05T07:49:18;94542.94;;;26.02;83.00
12775;BME280;6451;42.630;23.382;2022-07-05T07:51:45;94542.03;;;25.93;82.69
12775;BME280;6451;42.630;23.382;2022-07-05T07:54:12;94542.81;;;25.93;82.58
12775;BME280;6451;42.630;23.382;2022-07-05T07:56:39;94545.31;;;26.17;81.65
12775;BME280;6451;42.630;23.382;2022-07-05T07:59:07;94547.25;;;26.45;80.45
12775;BME280;6451;42.630;23.382;2022-07-05T08:01:34;94527.84;;;26.16;80.50
12775;BME280;6451;42.630;23.382;2022-07-05T08:04:01;94548.06;;;26.58;80.38
12775;BME280;6451;42.630;23.382;2022-07-05T08:06:28;94538.72;;;26.65;82.96
12775;BME280;6451;42.630;23.382;2022-07-05T08:08:57;94521.56;;;26.41;82.33
12775;BME280;6451;42.630;23.382;2022-07-05T08:11:24;94546.50;;;26.70;82.82
12775;BME280;6451;42.630;23.382;2022-07-05T08:13:51;94551.06;;;26.51;81.14
12775;BME280;6451;42.630;23.382;2022-07-05T08:16:19;94541.97;;;26.76;82.84
12775;BME280;6451;42.630;23.382;2022-07-05T08:18:46;94522.56;;;26.85;83.90
12775;BME280;6451;42.630;23.382;2022-07-05T08:21:30;94539.84;;;26.55;80.73
12775;BME280;6451;42.630;23.382;2022-07-05T08:24:06;94535.53;;;26.38;78.57
12775;BME280;6451;42.630;23.382;2022-07-05T08:26:34;94525.34;;;26.60;79.84
12775;BME280;6451;42.630;23.382;2022-07-05T08:29:03;94522.34;;;26.80;78.33
12775;BME280;6451;42.630;23.382;2022-07-05T08:31:34;94528.97;;;27.21;77.34
12775;BME280;6451;42.630;23.382;2022-07-05T08:34:02;94531.03;;;27.55;75.79
12775;BME280;6451;42.630;23.382;2022-07-05T08:36:29;94525.59;;;27.38;73.40
12775;BME280;6451;42.630;23.382;2022-07-05T08:38:56;94524.84;;;27.60;72.34
12775;BME280;6451;42.630;23.382;2022-07-05T08:41:23;94517.84;;;27.55;72.08
12775;BME280;6451;42.630;23.382;2022-07-05T08:43:51;94520.03;;;27.60;71.96
12775;BME280;6451;42.630;23.382;2022-07-05T08:46:19;94505.09;;;27.67;76.04
12775;BME280;6451;42.630;23.382;2022-07-05T08:48:50;94514.91;;;27.72;74.76
12775;BME280;6451;42.630;23.382;2022-07-05T08:51:18;94504.91;;;27.61;75.53
12775;BME280;6451;42.630;23.382;2022-07-05T08:53:47;94510.84;;;27.85;76.07
12775;BME280;6451;42.630;23.382;2022-07-05T08:56:15;94507.59;;;27.87;72.46
12775;BME280;6451;42.630;23.382;2022-07-05T08:58:42;94508.63;;;28.02;72.56
12775;BME280;6451;42.630;23.382;2022-07-05T09:01:11;94512.50;;;28.05;67.98
12775;BME280;6451;42.630;23.382;2022-07-05T09:03:41;94419.97;;;27.53;67.75
12775;BME280;6451;42.630;23.382;2022-07-05T09:06:12;94507.63;;;28.18;68.44
12775;BME280;6451;42.630;23.382;2022-07-05T09:08:40;94485.13;;;28.12;69.65
12775;BME280;6451;42.630;23.382;2022-07-05T09:11:08;94502.72;;;28.22;74.17
12775;BME280;6451;42.630;23.382;2022-07-05T09:13:37;94497.19;;;28.31;76.33
12775;BME280;6451;42.630;23.382;2022-07-05T09:16:04;94489.09;;;28.55;72.50
12775;BME280;6451;42.630;23.382;2022-07-05T09:18:38;94492.31;;;28.85;72.31
12775;BME280;6451;42.630;23.382;2022-07-05T09:21:13;94493.66;;;28.71;72.54
12775;BME280;6451;42.630;23.382;2022-07-05T09:23:40;94488.88;;;28.40;71.12
12775;BME280;6451;42.630;23.382;2022-07-05T09:26:08;94487.50;;;28.45;72.11
12775;BME280;6451;42.630;23.382;2022-07-05T09:28:35;94476.69;;;28.56;70.32
12775;BME280;6451;42.630;23.382;2022-07-05T09:31:02;94479.63;;;28.52;70.35
12775;BME280;6451;42.630;23.382;2022-07-05T09:33:28;94474.56;;;28.69;68.94
12775;BME280;6451;42.630;23.382;2022-07-05T09:35:56;94481.38;;;28.68;67.07
12775;BME280;6451;42.630;23.382;2022-07-05T09:38:25;94454.94;;;28.51;68.14
12775;BME280;6451;42.630;23.382;2022-07-05T09:40:53;94485.41;;;28.67;68.43
12775;BME280;6451;42.630;23.382;2022-07-05T09:43:22;94477.09;;;28.86;67.57
12775;BME280;6451;42.630;23.382;2022-07-05T09:45:54;94471.09;;;28.96;68.69
12775;BME280;6451;42.630;23.382;2022-07-05T09:48:21;94472.75;;;28.85;67.28
12775;BME280;6451;42.630;23.382;2022-07-05T09:50:49;94467.00;;;28.88;66.00
12775;BME280;6451;42.630;23.382;2022-07-05T09:53:17;94449.66;;;28.93;68.63
12775;BME280;6451;42.630;23.382;2022-07-05T09:56:02;94439.16;;;28.66;69.40
12775;BME280;6451;42.630;23.382;2022-07-05T09:58:29;94452.22;;;28.69;70.08
12775;BME280;6451;42.630;23.382;2022-07-05T10:00:56;94464.44;;;29.03;68.48
12775;BME280;6451;42.630;23.382;2022-07-05T10:03:23;94463.38;;;29.19;68.85
12775;BME280;6451;42.630;23.382;2022-07-05T10:05:50;94456.22;;;29.27;70.02
12775;BME280;6451;42.630;23.382;2022-07-05T10:08:16;94450.84;;;29.60;69.04
12775;BME280;6451;42.630;23.382;2022-07-05T10:10:45;94448.63;;;29.73;67.80
12775;BME280;6451;42.630;23.382;2022-07-05T10:13:15;94447.72;;;29.76;68.92
12775;BME280;6451;42.630;23.382;2022-07-05T10:15:42;94446.91;;;29.85;68.32
12775;BME280;6451;42.630;23.382;2022-07-05T10:18:12;94433.34;;;30.02;65.76
12775;BME280;6451;42.630;23.382;2022-07-05T10:20:42;94430.22;;;30.18;64.53
12775;BME280;6451;42.630;23.382;2022-07-05T10:23:11;94425.88;;;30.08;63.91
12775;BME280;6451;42.630;23.382;2022-07-05T10:25:40;94410.97;;;30.11;65.22
12775;BME280;6451;42.630;23.382;2022-07-05T10:28:08;94424.47;;;30.12;63.67
12775;BME280;6451;42.630;23.382;2022-07-05T10:30:37;94425.50;;;30.33;63.03
12775;BME280;6451;42.630;23.382;2022-07-05T10:33:06;94427.22;;;30.31;63.10
12775;BME280;6451;42.630;23.382;2022-07-05T10:35:34;94414.84;;;30.04;66.33
12775;BME280;6451;42.630;23.382;2022-07-05T10:38:02;94410.59;;;30.27;67.08
12775;BME280;6451;42.630;23.382;2022-07-05T10:40:33;94413.09;;;30.58;64.69
12775;BME280;6451;42.630;23.382;2022-07-05T10:43:02;94401.94;;;30.49;66.44
12775;BME280;6451;42.630;23.382;2022-07-05T10:45:30;94407.44;;;30.77;62.85
12775;BME280;6451;42.630;23.382;2022-07-05T10:48:17;94402.41;;;30.81;61.37
12775;BME280;6451;42.630;23.382;2022-07-05T10:50:46;94400.03;;;30.55;64.81
12775;BME280;6451;42.630;23.382;2022-07-05T10:53:16;94394.25;;;30.68;63.78
12775;BME280;6451;42.630;23.382;2022-07-05T10:55:51;94404.16;;;30.78;63.47
12775;BME280;6451;42.630;23.382;2022-07-05T10:58:24;94399.19;;;30.73;58.54
12775;BME280;6451;42.630;23.382;2022-07-05T11:04:25;94397.06;;;30.68;58.94
12775;BME280;6451;42.630;23.382;2022-07-05T11:06:55;94399.88;;;30.92;57.18
12775;BME280;6451;42.630;23.382;2022-07-05T11:09:23;94376.81;;;30.64;55.85
12775;BME280;6451;42.630;23.382;2022-07-05T11:12:06;94396.31;;;30.82;55.83
12775;BME280;6451;42.630;23.382;2022-07-05T11:14:35;94376.41;;;30.80;55.08
12775;BME280;6451;42.630;23.382;2022-07-05T11:17:20;94385.50;;;30.99;52.13
12775;BME280;6451;42.630;23.382;2022-07-05T11:23:08;94376.66;;;31.15;57.12
12775;BME280;6451;42.630;23.382;2022-07-05T11:25:37;94364.78;;;30.96;56.00
12775;BME280;6451;42.630;23.382;2022-07-05T11:28:15;94392.72;;;30.91;54.61
12775;BME280;6451;42.630;23.382;2022-07-05T11:30:54;94385.09;;;30.91;57.18
12775;BME280;6451;42.630;23.382;2022-07-05T11:33:42;94388.88;;;31.03;56.27
12775;BME280;6451;42.630;23.382;2022-07-05T11:36:22;94387.91;;;30.82;54.73
12775;BME280;6451;42.630;23.382;2022-07-05T11:39:06;94376.63;;;30.77;56.56
12775;BME280;6451;42.630;23.382;2022-07-05T11:41:33;94370.47;;;30.87;57.02
12775;BME280;6451;42.630;23.382;2022-07-05T11:44:02;94368.69;;;30.99;56.38
12775;BME280;6451;42.630;23.382;2022-07-05T11:46:29;94371.97;;;31.12;54.08
12775;BME280;6451;42.630;23.382;2022-07-05T11:48:56;94368.00;;;31.04;53.85
12775;BME280;6451;42.630;23.382;2022-07-05T11:51:24;94359.19;;;30.96;53.66
12775;BME280;6451;42.630;23.382;2022-07-05T11:53:51;94354.84;;;30.95;53.74
12775;BME280;6451;42.630;23.382;2022-07-05T11:56:18;94322.16;;;30.92;57.15
12775;BME280;6451;42.630;23.382;2022-07-05T11:58:45;94350.59;;;31.24;53.87
12775;BME280;6451;42.630;23.382;2022-07-05T12:01:12;94347.94;;;31.20;53.21
12775;BME280;6451;42.630;23.382;2022-07-05T12:03:39;94338.72;;;31.59;53.08
12775;BME280;6451;42.630;23.382;2022-07-05T12:06:15;94343.56;;;31.58;52.80
12775;BME280;6451;42.630;23.382;2022-07-05T12:08:44;94349.81;;;31.77;50.85
12775;BME280;6451;42.630;23.382;2022-07-05T12:11:12;94338.72;;;31.59;51.88
12775;BME280;6451;42.630;23.382;2022-07-05T12:13:56;94339.41;;;31.53;52.12
12775;BME280;6451;42.630;23.382;2022-07-05T12:16:23;94342.69;;;31.67;51.86
12775;BME280;6451;42.630;23.382;2022-07-05T12:18:52;94338.34;;;31.95;51.10
12775;BME280;6451;42.630;23.382;2022-07-05T12:21:20;94337.03;;;31.91;51.76
12775;BME280;6451;42.630;23.382;2022-07-05T12:23:49;94328.50;;;31.85;53.38
12775;BME280;6451;42.630;23.382;2022-07-05T12:26:18;94333.22;;;32.08;51.57
12775;BME280;6451;42.630;23.382;2022-07-05T12:28:46;94327.72;;;31.99;52.70
12775;BME280;6451;42.630;23.382;2022-07-05T12:31:21;94331.59;;;31.87;52.59
12775;BME280;6451;42.630;23.382;2022-07-05T12:33:49;94319.84;;;32.03;52.33
12775;BME280;6451;42.630;23.382;2022-07-05T12:36:18;94244.81;;;31.84;50.25
12775;BME280;6451;42.630;23.382;2022-07-05T12:38:45;94316.34;;;32.38;49.10
12775;BME280;6451;42.630;23.382;2022-07-05T12:41:21;94322.81;;;32.29;51.35
12775;BME280;6451;42.630;23.382;2022-07-05T12:43:50;94323.63;;;32.50;51.66
12775;BME280;6451;42.630;23.382;2022-07-05T12:46:17;94321.41;;;32.54;50.30
12775;BME280;6451;42.630;23.382;2022-07-05T12:48:44;94317.06;;;32.53;50.02
12775;BME280;6451;42.630;23.382;2022-07-05T12:51:11;94313.47;;;32.73;50.35
12775;BME280;6451;42.630;23.382;2022-07-05T12:53:45;94295.84;;;32.73;49.03
12775;BME280;6451;42.630;23.382;2022-07-05T12:56:31;94302.53;;;32.96;49.17
12775;BME280;6451;42.630;23.382;2022-07-05T12:59:15;94305.38;;;32.81;49.92
12775;BME280;6451;42.630;23.382;2022-07-05T13:01:43;94296.47;;;32.62;49.21
12775;BME280;6451;42.630;23.382;2022-07-05T13:04:11;94290.06;;;32.82;50.12
12775;BME280;6451;42.630;23.382;2022-07-05T13:06:47;94268.88;;;32.25;50.66
12775;BME280;6451;42.630;23.382;2022-07-05T13:09:16;94292.88;;;32.06;51.51